createdAt,value
2019-05-14T00:01:05.564Z,64.70
2019-05-14T00:03:34.734Z,64.90
2019-05-14T00:06:03.910Z,64.80
2019-05-14T00:08:33.006Z,64.70
2019-05-14T00:11:01.839Z,65.60
2019-05-14T00:13:32.151Z,65.50
2019-05-14T00:16:01.471Z,65.80
2019-05-14T00:18:31.470Z,65.60
2019-05-14T00:21:01.989Z,66.70
2019-05-14T00:23:32.090Z,66.70
2019-05-14T00:26:01.713Z,66.30
2019-05-14T00:28:31.712Z,66.30
2019-05-14T00:31:02.987Z,66.30
2019-05-14T00:33:31.657Z,66.40
2019-05-14T00:36:02.174Z,66.70
2019-05-14T00:38:31.674Z,66.50
2019-05-14T00:41:02.082Z,66.40
2019-05-14T00:43:32.412Z,66.30
2019-05-14T00:46:01.800Z,66.40
2019-05-14T00:48:31.767Z,66.80
2019-05-14T00:51:02.132Z,66.50
2019-05-14T00:53:32.055Z,66.50
2019-05-14T00:56:02.200Z,66.60
2019-05-14T00:58:31.609Z,67.20
2019-05-14T01:01:01.515Z,67.90
2019-05-14T01:03:32.445Z,68.40
2019-05-14T01:06:02.938Z,68.50
2019-05-14T01:08:32.075Z,68.40
2019-05-14T01:11:01.643Z,68.20
2019-05-14T01:13:31.390Z,68.70
2019-05-14T01:16:01.582Z,69.20
2019-05-14T01:18:32.245Z,69.30
2019-05-14T01:21:01.304Z,68.90
2019-05-14T01:23:32.319Z,68.70
2019-05-14T01:26:02.347Z,68.80
2019-05-14T01:28:32.192Z,68.40
2019-05-14T01:31:01.521Z,68.40
2019-05-14T01:33:31.815Z,68.70
2019-05-14T01:36:02.355Z,68.70
2019-05-14T01:38:31.648Z,69.40
2019-05-14T01:41:01.851Z,69.50
2019-05-14T01:43:31.786Z,69.10
2019-05-14T01:46:01.934Z,68.80
2019-05-14T01:48:31.577Z,69.00
2019-05-14T01:51:01.541Z,70.00
2019-05-14T01:53:31.302Z,69.50
2019-05-14T01:56:01.635Z,68.90
2019-05-14T01:58:31.355Z,69.30
2019-05-14T02:01:01.950Z,70.40
2019-05-14T02:03:32.317Z,70.10
2019-05-14T02:06:01.775Z,70.50
2019-05-14T02:08:32.186Z,71.50
2019-05-14T02:11:01.912Z,70.80
2019-05-14T02:13:32.161Z,71.80
2019-05-14T02:16:01.895Z,70.60
2019-05-14T02:18:31.302Z,71.10
2019-05-14T02:21:01.575Z,71.60
2019-05-14T02:23:31.981Z,71.10
2019-05-14T02:26:02.546Z,71.00
2019-05-14T02:28:31.699Z,71.30
2019-05-14T02:31:03.304Z,71.60
2019-05-14T02:33:31.124Z,71.50
2019-05-14T02:36:00.431Z,71.30
2019-05-14T02:38:30.141Z,71.30
2019-05-14T02:40:59.942Z,71.60
2019-05-14T02:43:29.634Z,71.60
2019-05-14T02:46:10.714Z,71.40
2019-05-14T02:48:29.714Z,71.30
2019-05-14T02:50:59.788Z,71.10
2019-05-14T02:53:29.845Z,71.30
2019-05-14T02:55:59.500Z,71.10
2019-05-14T02:58:29.802Z,70.80
2019-05-14T03:01:00.397Z,70.60
2019-05-14T03:03:30.075Z,70.40
2019-05-14T03:06:00.537Z,70.60
2019-05-14T03:08:30.586Z,70.60
2019-05-14T03:11:00.477Z,70.40
2019-05-14T03:13:29.978Z,70.30
2019-05-14T03:15:59.702Z,69.80
2019-05-14T03:18:29.631Z,69.90
2019-05-14T03:21:00.909Z,70.10
2019-05-14T03:23:30.186Z,70.40
2019-05-14T03:26:00.475Z,70.40
2019-05-14T03:28:30.605Z,71.00
2019-05-14T03:31:03.255Z,70.70
2019-05-14T03:33:32.996Z,70.10
2019-05-14T03:36:09.330Z,70.00
2019-05-14T03:38:32.423Z,69.90
2019-05-14T03:41:01.990Z,70.00
2019-05-14T03:43:31.343Z,71.10
2019-05-14T03:46:00.798Z,73.60
2019-05-14T03:48:30.054Z,73.00
2019-05-14T03:51:00.064Z,73.20
2019-05-14T03:53:29.926Z,74.30
2019-05-14T03:56:00.117Z,74.60
2019-05-14T03:58:29.976Z,74.50
2019-05-14T04:01:03.041Z,74.70
2019-05-14T04:03:32.342Z,74.80
2019-05-14T04:06:02.459Z,74.60
2019-05-14T04:08:33.299Z,74.30
2019-05-14T04:11:02.680Z,74.40
2019-05-14T04:13:33.437Z,74.30
2019-05-14T04:16:03.267Z,73.70
2019-05-14T04:18:40.524Z,73.80
2019-05-14T04:21:09.932Z,73.50
2019-05-14T04:23:40.349Z,73.90
2019-05-14T04:26:11.129Z,73.10
2019-05-14T04:28:42.895Z,72.90
2019-05-14T04:31:12.427Z,73.30
2019-05-14T04:33:45.037Z,73.00
2019-05-14T04:36:14.293Z,72.90
2019-05-14T04:38:43.200Z,73.30
2019-05-14T04:41:12.116Z,73.40
2019-05-14T04:43:41.179Z,73.40
2019-05-14T04:46:10.764Z,73.10
2019-05-14T04:48:43.400Z,73.70
2019-05-14T04:51:10.406Z,72.80
2019-05-14T04:53:39.732Z,73.00
2019-05-14T04:56:10.044Z,72.70
2019-05-14T04:58:40.848Z,72.70
2019-05-14T05:01:10.345Z,73.30
2019-05-14T05:03:40.254Z,73.30
2019-05-14T05:06:10.075Z,73.40
2019-05-14T05:08:39.832Z,73.40
2019-05-14T05:11:09.576Z,73.60
2019-05-14T05:13:39.739Z,73.30
2019-05-14T05:16:10.002Z,72.90
2019-05-14T05:18:40.169Z,72.50
2019-05-14T05:21:09.533Z,71.80
2019-05-14T05:23:38.892Z,72.20
2019-05-14T05:26:09.136Z,72.10
2019-05-14T05:28:39.117Z,72.70
2019-05-14T05:31:09.332Z,72.60
2019-05-14T05:33:38.538Z,72.30
2019-05-14T05:36:09.491Z,72.10
2019-05-14T05:38:39.409Z,71.90
2019-05-14T05:41:09.053Z,71.50
2019-05-14T05:43:39.430Z,71.00
2019-05-14T05:46:09.288Z,71.20
2019-05-14T05:48:38.893Z,70.70
2019-05-14T05:51:09.146Z,69.50
2019-05-14T05:53:39.308Z,69.70
2019-05-14T05:56:09.095Z,69.40
2019-05-14T05:58:39.709Z,69.10
2019-05-14T06:01:09.779Z,68.90
2019-05-14T06:03:39.475Z,68.80
2019-05-14T06:06:13.473Z,68.40
2019-05-14T06:08:39.335Z,68.40
2019-05-14T06:11:08.519Z,68.40
2019-05-14T06:13:39.046Z,68.30
2019-05-14T06:16:09.423Z,68.10
2019-05-14T06:18:39.458Z,68.50
2019-05-14T06:21:09.309Z,67.60
2019-05-14T06:23:38.774Z,68.10
2019-05-14T06:26:11.561Z,67.60
2019-05-14T06:28:40.931Z,67.30
2019-05-14T06:31:09.916Z,67.70
2019-05-14T06:33:39.763Z,68.40
2019-05-14T06:36:08.951Z,66.90
2019-05-14T06:38:38.922Z,67.20
2019-05-14T06:41:08.458Z,67.30
2019-05-14T06:43:39.257Z,67.00
2019-05-14T06:46:08.972Z,67.30
2019-05-14T06:48:39.683Z,66.60
2019-05-14T06:51:09.047Z,66.60
2019-05-14T06:53:39.173Z,66.50
2019-05-14T06:56:08.359Z,67.00
2019-05-14T06:58:38.861Z,67.10
2019-05-14T07:01:09.655Z,66.30
2019-05-14T07:03:38.508Z,66.50
2019-05-14T07:06:08.975Z,66.80
2019-05-14T07:08:39.187Z,65.90
2019-05-14T07:11:08.705Z,66.50
2019-05-14T07:13:38.563Z,66.80
2019-05-14T07:16:08.991Z,65.60
2019-05-14T07:18:46.501Z,65.00
2019-05-14T07:21:08.804Z,64.50
2019-05-14T07:23:38.401Z,64.60
2019-05-14T07:26:08.428Z,64.40
2019-05-14T07:28:42.221Z,65.50
2019-05-14T07:31:09.848Z,65.00
2019-05-14T07:33:39.138Z,63.60
2019-05-14T07:36:08.924Z,63.30
2019-05-14T07:38:39.249Z,62.30
2019-05-14T07:41:09.262Z,62.00
2019-05-14T07:43:39.335Z,62.00
2019-05-14T07:46:08.775Z,62.60
2019-05-14T07:48:39.216Z,61.60
2019-05-14T07:51:09.025Z,62.00
2019-05-14T07:53:41.694Z,62.80
2019-05-14T07:56:09.515Z,60.50
2019-05-14T07:58:38.952Z,60.10
2019-05-14T08:01:09.420Z,60.20
2019-05-14T08:03:38.516Z,59.20
2019-05-14T08:06:08.276Z,59.30
2019-05-14T08:08:38.574Z,57.80
2019-05-14T08:11:08.732Z,59.70
2019-05-14T08:13:39.094Z,58.10
2019-05-14T08:16:08.977Z,56.90
2019-05-14T08:18:39.624Z,58.20
2019-05-14T08:21:09.713Z,58.20
2019-05-14T08:23:39.323Z,58.70
2019-05-14T08:26:08.381Z,57.80
2019-05-14T08:28:38.222Z,58.30
2019-05-14T08:31:09.424Z,58.00
2019-05-14T08:33:39.732Z,56.90
2019-05-14T08:36:08.971Z,56.30
2019-05-14T08:38:38.615Z,55.70
2019-05-14T08:41:08.445Z,56.30
2019-05-14T08:43:39.642Z,55.80
2019-05-14T08:46:08.381Z,56.40
2019-05-14T08:48:38.852Z,54.80
2019-05-14T08:51:09.156Z,54.20
2019-05-14T08:53:38.826Z,56.80
2019-05-14T08:56:08.809Z,54.20
2019-05-14T08:58:38.951Z,53.60
2019-05-14T09:01:08.375Z,54.00
2019-05-14T09:03:39.366Z,54.40
2019-05-14T09:06:09.109Z,52.00
2019-05-14T09:08:38.964Z,52.20
2019-05-14T09:11:09.831Z,51.70
2019-05-14T09:13:39.574Z,53.30
2019-05-14T09:16:09.249Z,48.90
2019-05-14T09:18:38.959Z,49.50
2019-05-14T09:21:08.626Z,49.50
2019-05-14T09:23:39.234Z,46.10
2019-05-14T09:26:09.665Z,47.20
2019-05-14T09:28:39.417Z,45.80
2019-05-14T09:31:08.815Z,45.50
2019-05-14T09:33:39.025Z,48.00
2019-05-14T09:36:17.976Z,46.10
2019-05-14T09:38:42.358Z,44.90
2019-05-14T09:41:14.976Z,46.40
2019-05-14T09:43:39.952Z,47.30
2019-05-14T09:46:09.271Z,45.70
2019-05-14T09:48:38.295Z,46.70
2019-05-14T09:51:09.271Z,44.40
2019-05-14T09:53:38.519Z,47.00
2019-05-14T09:56:09.071Z,46.80
2019-05-14T09:58:38.851Z,47.50
2019-05-14T10:01:08.645Z,47.30
2019-05-14T10:03:39.013Z,47.00
2019-05-14T10:06:09.786Z,46.80
2019-05-14T10:08:39.396Z,47.80
2019-05-14T10:11:08.315Z,47.90
2019-05-14T10:13:39.337Z,47.90
2019-05-14T10:16:09.438Z,46.50
2019-05-14T10:18:38.847Z,47.50
2019-05-14T10:21:08.654Z,47.60
2019-05-14T10:23:38.972Z,44.40
2019-05-14T10:26:09.169Z,44.90
2019-05-14T10:28:41.284Z,46.40
2019-05-14T10:31:09.822Z,47.60
2019-05-14T10:33:39.693Z,46.70
2019-05-14T10:36:09.258Z,47.00
2019-05-14T10:38:38.965Z,46.70
2019-05-14T10:41:08.976Z,47.60
2019-05-14T10:43:39.169Z,48.40
2019-05-14T10:46:09.117Z,46.40
2019-05-14T10:48:39.566Z,44.60
2019-05-14T10:51:09.829Z,45.80
2019-05-14T10:53:38.859Z,46.20
2019-05-14T10:56:09.677Z,47.70
2019-05-14T10:58:38.219Z,44.90
2019-05-14T11:01:11.261Z,46.40
2019-05-14T11:03:38.851Z,45.40
2019-05-14T11:06:11.383Z,44.70
2019-05-14T11:08:38.937Z,45.60
2019-05-14T11:11:10.630Z,43.60
2019-05-14T11:13:39.523Z,44.50
2019-05-14T11:16:08.861Z,44.60
2019-05-14T11:18:39.836Z,43.20
2019-05-14T11:21:21.466Z,44.50
2019-05-14T11:23:38.856Z,45.00
2019-05-14T11:26:09.202Z,44.70
2019-05-14T11:28:39.518Z,44.40
2019-05-14T11:31:09.378Z,44.20
2019-05-14T11:33:38.853Z,44.70
2019-05-14T11:36:09.281Z,43.60
2019-05-14T11:38:38.838Z,46.30
2019-05-14T11:41:09.563Z,45.20
2019-05-14T11:43:39.789Z,44.70
2019-05-14T11:46:09.152Z,43.70
2019-05-14T11:48:39.250Z,43.30
2019-05-14T11:51:10.035Z,41.90
2019-05-14T11:53:38.852Z,40.40
2019-05-14T11:56:08.864Z,41.30
2019-05-14T11:58:38.138Z,43.10
2019-05-14T12:01:09.263Z,43.50
2019-05-14T12:03:39.381Z,42.30
2019-05-14T12:06:09.907Z,43.60
2019-05-14T12:08:41.827Z,43.00
2019-05-14T12:11:09.728Z,43.20
2019-05-14T12:13:39.422Z,43.10
2019-05-14T12:16:08.738Z,41.80
2019-05-14T12:18:41.596Z,41.30
2019-05-14T12:21:09.026Z,41.90
2019-05-14T12:23:39.321Z,42.20
2019-05-14T12:26:09.536Z,43.90
2019-05-14T12:28:39.031Z,43.00
2019-05-14T12:31:09.374Z,40.40
2019-05-14T12:33:39.657Z,41.30
2019-05-14T12:36:10.309Z,38.00
2019-05-14T12:38:39.825Z,40.00
2019-05-14T12:41:09.381Z,41.80
2019-05-14T12:43:39.687Z,43.20
2019-05-14T12:46:10.424Z,40.90
2019-05-14T12:48:39.880Z,41.20
2019-05-14T12:51:09.323Z,41.50
2019-05-14T12:53:39.390Z,43.00
2019-05-14T12:56:09.040Z,40.00
2019-05-14T12:58:44.587Z,38.90
2019-05-14T13:01:09.415Z,36.10
2019-05-14T13:03:38.762Z,37.90
2019-05-14T13:06:10.045Z,37.70
2019-05-14T13:08:38.618Z,36.60
2019-05-14T13:11:09.620Z,36.30
2019-05-14T13:13:42.649Z,36.50
2019-05-14T13:16:09.566Z,37.90
2019-05-14T13:18:38.883Z,37.20
2019-05-14T13:21:07.846Z,40.40
2019-05-14T13:23:38.373Z,40.40
2019-05-14T13:26:10.543Z,38.70
2019-05-14T13:28:39.719Z,39.70
2019-05-14T13:31:09.063Z,39.40
2019-05-14T13:33:39.204Z,38.70
2019-05-14T13:36:08.396Z,38.80
2019-05-14T13:38:39.569Z,36.70
2019-05-14T13:41:08.672Z,34.20
2019-05-14T13:43:39.041Z,35.40
2019-05-14T13:46:10.475Z,36.20
2019-05-14T13:48:43.141Z,36.10
2019-05-14T13:51:09.960Z,36.80
2019-05-14T13:53:39.251Z,37.70
2019-05-14T13:56:08.927Z,36.90
2019-05-14T13:58:38.127Z,37.60
2019-05-14T14:01:09.660Z,38.30
2019-05-14T14:03:46.541Z,37.90
2019-05-14T14:06:10.516Z,37.00
2019-05-14T14:08:42.240Z,37.20
2019-05-14T14:11:12.800Z,36.60
2019-05-14T14:13:41.697Z,38.30
2019-05-14T14:16:14.847Z,38.80
2019-05-14T14:18:41.624Z,37.90
2019-05-14T14:21:10.391Z,37.10
2019-05-14T14:23:39.494Z,36.30
2019-05-14T14:26:09.607Z,36.70
2019-05-14T14:28:39.577Z,37.90
2019-05-14T14:31:11.090Z,37.00
2019-05-14T14:33:40.084Z,37.70
2019-05-14T14:36:08.979Z,37.40
2019-05-14T14:38:40.177Z,37.40
2019-05-14T14:41:10.207Z,37.00
2019-05-14T14:43:43.769Z,37.50
2019-05-14T14:46:14.009Z,38.20
2019-05-14T14:48:40.485Z,37.50
2019-05-14T14:51:09.239Z,36.90
2019-05-14T14:53:52.517Z,36.30
2019-05-14T14:56:09.728Z,36.20
2019-05-14T14:58:39.343Z,35.70
2019-05-14T15:01:08.802Z,37.60
2019-05-14T15:03:37.983Z,37.90
2019-05-14T15:06:09.671Z,38.00
2019-05-14T15:08:39.188Z,36.10
2019-05-14T15:11:08.857Z,35.60
2019-05-14T15:13:39.121Z,36.10
2019-05-14T15:16:13.305Z,37.30
2019-05-14T15:18:39.346Z,37.10
2019-05-14T15:21:09.853Z,36.90
2019-05-14T15:23:43.082Z,38.40
2019-05-14T15:26:12.004Z,35.00
2019-05-14T15:28:40.417Z,36.40
2019-05-14T15:31:09.429Z,36.20
2019-05-14T15:33:38.654Z,37.30
2019-05-14T15:36:09.134Z,36.10
2019-05-14T15:38:39.627Z,35.60
2019-05-14T15:41:13.336Z,35.50
2019-05-14T15:43:39.691Z,36.10
2019-05-14T15:46:08.872Z,37.40
2019-05-14T15:48:39.489Z,36.50
2019-05-14T15:51:14.293Z,35.90
2019-05-14T15:53:39.697Z,36.80
2019-05-14T15:56:08.935Z,38.70
2019-05-14T15:58:39.022Z,38.20
2019-05-14T16:01:10.038Z,37.70
2019-05-14T16:03:41.387Z,36.40
2019-05-14T16:06:10.198Z,37.90
2019-05-14T16:08:40.366Z,37.10
2019-05-14T16:11:11.474Z,37.80
2019-05-14T16:13:40.668Z,38.40
2019-05-14T16:16:10.669Z,39.20
2019-05-14T16:18:39.734Z,36.60
2019-05-14T16:21:10.498Z,37.50
2019-05-14T16:23:39.602Z,36.70
2019-05-14T16:26:08.825Z,38.60
2019-05-14T16:28:39.494Z,37.90
2019-05-14T16:31:08.808Z,37.30
2019-05-14T16:33:40.503Z,37.30
2019-05-14T16:36:09.154Z,37.00
2019-05-14T16:38:39.569Z,37.00
2019-05-14T16:41:08.865Z,37.50
2019-05-14T16:43:39.876Z,37.30
2019-05-14T16:46:09.546Z,36.50
2019-05-14T16:48:39.678Z,36.80
2019-05-14T16:51:09.115Z,35.70
2019-05-14T16:53:38.347Z,36.50
2019-05-14T16:56:08.136Z,37.70
2019-05-14T16:58:38.750Z,38.20
2019-05-14T17:01:09.594Z,35.90
2019-05-14T17:03:39.803Z,37.90
2019-05-14T17:06:09.178Z,37.80
2019-05-14T17:08:39.448Z,36.00
2019-05-14T17:11:09.032Z,35.30
2019-05-14T17:13:38.321Z,36.70
2019-05-14T17:16:08.582Z,37.60
2019-05-14T17:18:38.119Z,37.70
2019-05-14T17:21:09.215Z,37.30
2019-05-14T17:23:39.224Z,38.10
2019-05-14T17:26:09.036Z,38.50
2019-05-14T17:28:40.509Z,38.60
2019-05-14T17:31:08.991Z,38.20
2019-05-14T17:33:39.463Z,38.80
2019-05-14T17:36:09.570Z,38.50
2019-05-14T17:38:39.220Z,37.90
2019-05-14T17:41:09.436Z,38.10
2019-05-14T17:43:39.406Z,37.70
2019-05-14T17:46:09.763Z,37.80
2019-05-14T17:48:39.391Z,38.80
2019-05-14T17:51:09.508Z,38.90
2019-05-14T17:53:38.941Z,39.30
2019-05-14T17:56:08.497Z,39.40
2019-05-14T17:58:38.554Z,38.80
2019-05-14T18:01:09.090Z,37.90
2019-05-14T18:03:39.960Z,38.00
2019-05-14T18:06:09.291Z,38.90
2019-05-14T18:08:38.245Z,38.60
2019-05-14T18:11:08.791Z,38.80
2019-05-14T18:13:39.091Z,39.20
2019-05-14T18:16:09.196Z,39.60
2019-05-14T18:18:38.152Z,38.70
2019-05-14T18:21:09.402Z,39.50
2019-05-14T18:23:41.701Z,39.30
2019-05-14T18:26:09.269Z,40.00
2019-05-14T18:28:38.512Z,38.90
2019-05-14T18:31:09.443Z,39.20
2019-05-14T18:33:40.001Z,39.40
2019-05-14T18:36:08.946Z,39.30
2019-05-14T18:38:38.966Z,40.00
2019-05-14T18:41:08.658Z,39.20
2019-05-14T18:43:38.261Z,40.00
2019-05-14T18:46:08.467Z,40.30
2019-05-14T18:48:37.596Z,39.30
2019-05-14T18:51:09.016Z,40.00
2019-05-14T18:53:38.420Z,40.00
2019-05-14T18:56:19.676Z,40.40
2019-05-14T18:58:38.910Z,40.70
2019-05-14T19:01:08.325Z,40.40
2019-05-14T19:03:39.655Z,40.80
2019-05-14T19:06:07.658Z,40.30
2019-05-14T19:08:36.447Z,40.70
2019-05-14T19:11:05.391Z,41.70
2019-05-14T19:13:34.147Z,41.10
2019-05-14T19:16:02.933Z,41.00
2019-05-14T19:18:31.702Z,41.60
2019-05-14T19:21:00.494Z,41.50
2019-05-14T19:23:29.317Z,41.50
2019-05-14T19:25:59.132Z,41.40
2019-05-14T19:28:28.513Z,41.80
2019-05-14T19:30:59.659Z,41.10
2019-05-14T19:33:28.931Z,40.90
2019-05-14T19:35:57.995Z,41.60
2019-05-14T19:38:27.056Z,40.80
2019-05-14T19:40:55.927Z,41.20
2019-05-14T19:43:25.130Z,41.40
2019-05-14T19:45:53.905Z,40.90
2019-05-14T19:48:22.680Z,41.70
2019-05-14T19:50:51.840Z,41.60
2019-05-14T19:53:21.022Z,41.60
2019-05-14T19:55:49.884Z,41.90
2019-05-14T19:58:20.083Z,42.10
2019-05-14T20:00:49.389Z,41.90
2019-05-14T20:03:18.782Z,42.20
2019-05-14T20:05:47.862Z,42.50
2019-05-14T20:08:18.953Z,43.30
2019-05-14T20:10:48.996Z,43.00
2019-05-14T20:13:19.407Z,43.10
2019-05-14T20:15:48.787Z,43.30
2019-05-14T20:18:17.807Z,43.60
2019-05-14T20:20:49.098Z,43.90
2019-05-14T20:23:18.518Z,43.80
2019-05-14T20:25:48.207Z,44.30
2019-05-14T20:28:18.919Z,44.70
2019-05-14T20:30:49.263Z,44.90
2019-05-14T20:33:19.186Z,44.90
2019-05-14T20:35:48.745Z,45.10
2019-05-14T20:38:18.449Z,45.50
2019-05-14T20:40:48.712Z,45.50
2019-05-14T20:43:18.439Z,45.30
2019-05-14T20:45:48.916Z,45.00
2019-05-14T20:48:18.915Z,45.20
2019-05-14T20:50:47.979Z,44.90
2019-05-14T20:53:18.489Z,45.60
2019-05-14T20:55:47.294Z,44.80
2019-05-14T20:58:16.176Z,44.60
2019-05-14T21:00:45.226Z,44.70
2019-05-14T21:03:14.024Z,44.70
2019-05-14T21:05:43.169Z,44.70
2019-05-14T21:08:13.611Z,45.00
2019-05-14T21:10:42.633Z,45.10
2019-05-14T21:13:11.495Z,45.10
2019-05-14T21:15:40.598Z,45.40
2019-05-14T21:18:09.401Z,45.10
2019-05-14T21:20:39.394Z,45.00
2019-05-14T21:23:08.951Z,45.30
2019-05-14T21:25:38.705Z,45.10
2019-05-14T21:28:09.308Z,45.20
2019-05-14T21:30:38.981Z,45.50
2019-05-14T21:33:08.589Z,45.50
2019-05-14T21:35:38.906Z,45.60
2019-05-14T21:38:09.075Z,45.80
2019-05-14T21:40:38.927Z,45.00
2019-05-14T21:43:10.976Z,45.20
2019-05-14T21:45:38.952Z,45.40
2019-05-14T21:48:08.617Z,43.90
2019-05-14T21:50:38.835Z,45.10
2019-05-14T21:53:08.554Z,45.50
2019-05-14T21:55:38.771Z,44.30
2019-05-14T21:58:09.094Z,45.10
2019-05-14T22:00:42.432Z,45.60
2019-05-14T22:03:11.372Z,45.60
2019-05-14T22:05:40.576Z,45.70
2019-05-14T22:08:09.370Z,46.00
2019-05-14T22:10:39.688Z,46.00
2019-05-14T22:13:09.161Z,45.50
2019-05-14T22:15:39.016Z,45.70
2019-05-14T22:18:17.464Z,45.70
2019-05-14T22:20:38.894Z,45.70
2019-05-14T22:23:08.898Z,45.70
2019-05-14T22:25:39.497Z,46.00
2019-05-14T22:28:14.932Z,45.80
2019-05-14T22:30:39.494Z,46.00
2019-05-14T22:33:08.782Z,46.00
2019-05-14T22:35:39.557Z,46.40
2019-05-14T22:38:08.212Z,46.30
2019-05-14T22:40:39.020Z,46.40
2019-05-14T22:43:09.178Z,46.60
2019-05-14T22:45:38.271Z,46.50
2019-05-14T22:48:09.407Z,46.40
2019-05-14T22:50:38.679Z,46.50
2019-05-14T22:53:09.371Z,46.50
2019-05-14T22:55:38.528Z,46.70
2019-05-14T22:58:09.953Z,47.10
2019-05-14T23:00:44.828Z,47.20
2019-05-14T23:03:08.471Z,47.60
2019-05-14T23:05:39.297Z,47.90
2019-05-14T23:08:08.962Z,48.00
2019-05-14T23:10:38.897Z,47.80
2019-05-14T23:13:09.385Z,48.30
2019-05-14T23:15:38.675Z,48.50
2019-05-14T23:18:08.549Z,48.50
2019-05-14T23:20:39.031Z,48.60
2019-05-14T23:23:09.235Z,48.60
2019-05-14T23:25:38.927Z,48.40
2019-05-14T23:28:08.545Z,49.20
2019-05-14T23:30:38.753Z,48.80
2019-05-14T23:33:07.730Z,49.00
2019-05-14T23:35:39.055Z,49.10
2019-05-14T23:38:08.339Z,49.20
2019-05-14T23:40:38.671Z,49.40
2019-05-14T23:43:08.230Z,50.00
2019-05-14T23:45:38.027Z,50.00
2019-05-14T23:48:09.363Z,50.10
2019-05-14T23:50:37.999Z,50.20
2019-05-14T23:53:09.178Z,50.50
2019-05-14T23:55:38.616Z,50.80
2019-05-14T23:58:08.337Z,51.40
